Terminal Aerodrome Forecast
Issued by NWS Sioux Falls, SD

Home | Current Version | Previous Version | Graphics & Text | Print | Product List | Glossary On
Versions: 1 2 3 4 5 6 7 8 9 10 11 12 13 14 15 16 17 18 19
881
FTUS43 KFSD 301130
TAFHON
TAF
KHON 301130Z 3012/0112 04008KT P6SM SCT110 OVC200
     FM301500 04013G19KT P6SM SCT080 OVC150
     FM301900 05018G26KT P6SM BKN050
     FM010100 04012KT P6SM BKN070
     FM010500 02009KT P6SM SCT080 SCT200=

USA.gov is the U.S. government's official web portal to all federal, state and local government web resources and services.